Etusivu
METAR-TAF:

METAR-TAF

Lentoasemat :

Cần Thơ, Vietnam

Leveyspiiri: 10-05-07N, Pituuspiiri: 105-42-43E, korkeus merenpinnasta: 3 m

Tämänhetkinen sää

Tämä raportti tehtiin 23 minuuttia sitten, kello 05.30 UTC
Tuuli 8 kn idästä
Lämpötila 34°C
Kosteus 56%
Ilmanpaine 1011 hPa
Näkyvyys 10 km tai enemmän
Hajonneita pilviä 1500 ft:n korkeudessa

METAR: VVCT 020530Z 09008KT 9999 BKN015 34/24 Q1011 NOSIG

Aika: 12:53 (05:53 UTC)

Sääennuste

Tämä raportti tehtiin 53 minuuttia sitten, kello 05.00 UTC
Ennuste voimassa 02. päivästä klo 06 UTC - 03. päivään klo 06 UTC
Tuuli 8 kn idästä/koillisesta
Näkyvyys 10 km tai enemmän
Hajanaisia pilviä 1500 ft:n korkeudessa

TAF: VVCT 020500Z 0206/0306 07008KT 9999 SCT015

Säähavainnot ja -ennusteet yli 4000 lentoasemalta (METAR- ja TAF-raportit).

Käytössä olevat sääasemat on merkitty karttaan keltaisilla ja punaisilla pisteillä.

Aseta hiiri pisteen päälle nähdäksesi sääaseman nimen.

Klikkaa sitten nähdäksesi säähavainnot ja -ennusteet.

Kartan vaihtaminen: klikkaa mustalla rastilla varustettuja vihreitä pisteitä, niin voit zoomata sisään; viivalla varustettua vihreää pistettä, niin voit zoomata ulos tai vihreitä nuolia, niin pääset viereisille kartoille.


METAR-TAF: